sensor_id;sensor_type;location;lat;lon;timestamp;P1;durP1;ratioP1;P2;durP2;ratioP2
5977;SDS011;3015;51.390;12.256;2022-12-07T00:02:04;14.00;;;10.80;;
5977;SDS011;3015;51.390;12.256;2022-12-07T00:04:29;13.80;;;11.47;;
5977;SDS011;3015;51.390;12.256;2022-12-07T00:06:55;20.03;;;14.40;;
5977;SDS011;3015;51.390;12.256;2022-12-07T00:09:21;15.03;;;12.37;;
5977;SDS011;3015;51.390;12.256;2022-12-07T00:11:48;18.93;;;12.13;;
5977;SDS011;3015;51.390;12.256;2022-12-07T00:14:16;19.00;;;12.50;;
5977;SDS011;3015;51.390;12.256;2022-12-07T00:16:42;15.65;;;11.43;;
5977;SDS011;3015;51.390;12.256;2022-12-07T00:19:09;19.40;;;13.27;;
5977;SDS011;3015;51.390;12.256;2022-12-07T00:21:36;18.73;;;13.32;;
5977;SDS011;3015;51.390;12.256;2022-12-07T00:24:03;17.50;;;11.95;;
5977;SDS011;3015;51.390;12.256;2022-12-07T00:26:30;15.88;;;11.88;;
5977;SDS011;3015;51.390;12.256;2022-12-07T00:28:59;18.90;;;11.95;;
5977;SDS011;3015;51.390;12.256;2022-12-07T00:31:34;17.55;;;12.23;;
5977;SDS011;3015;51.390;12.256;2022-12-07T00:34:03;18.00;;;12.70;;
5977;SDS011;3015;51.390;12.256;2022-12-07T00:36:37;18.63;;;12.80;;
5977;SDS011;3015;51.390;12.256;2022-12-07T00:39:02;17.97;;;13.60;;
5977;SDS011;3015;51.390;12.256;2022-12-07T00:41:28;19.30;;;12.47;;
5977;SDS011;3015;51.390;12.256;2022-12-07T00:43:54;18.63;;;11.82;;
5977;SDS011;3015;51.390;12.256;2022-12-07T00:46:21;18.40;;;12.07;;
5977;SDS011;3015;51.390;12.256;2022-12-07T00:48:47;22.15;;;14.45;;
5977;SDS011;3015;51.390;12.256;2022-12-07T00:51:14;16.98;;;12.07;;
5977;SDS011;3015;51.390;12.256;2022-12-07T00:53:41;20.63;;;13.75;;
5977;SDS011;3015;51.390;12.256;2022-12-07T00:56:11;19.33;;;13.05;;
5977;SDS011;3015;51.390;12.256;2022-12-07T00:58:39;19.88;;;12.88;;
5977;SDS011;3015;51.390;12.256;2022-12-07T01:01:05;20.57;;;13.07;;
5977;SDS011;3015;51.390;12.256;2022-12-07T01:03:31;18.08;;;13.02;;
5977;SDS011;3015;51.390;12.256;2022-12-07T01:05:57;22.10;;;13.90;;
5977;SDS011;3015;51.390;12.256;2022-12-07T01:08:24;16.50;;;12.63;;
5977;SDS011;3015;51.390;12.256;2022-12-07T01:11:00;20.45;;;12.15;;
5977;SDS011;3015;51.390;12.256;2022-12-07T01:13:31;20.08;;;13.50;;
5977;SDS011;3015;51.390;12.256;2022-12-07T01:15:58;17.13;;;12.43;;
5977;SDS011;3015;51.390;12.256;2022-12-07T01:18:26;15.73;;;13.00;;
5977;SDS011;3015;51.390;12.256;2022-12-07T01:21:00;19.40;;;12.88;;
5977;SDS011;3015;51.390;12.256;2022-12-07T01:23:28;18.67;;;12.30;;
5977;SDS011;3015;51.390;12.256;2022-12-07T01:25:55;18.00;;;12.80;;
5977;SDS011;3015;51.390;12.256;2022-12-07T01:28:22;18.08;;;13.00;;
5977;SDS011;3015;51.390;12.256;2022-12-07T01:30:54;15.63;;;12.47;;
5977;SDS011;3015;51.390;12.256;2022-12-07T01:33:25;17.77;;;12.57;;
5977;SDS011;3015;51.390;12.256;2022-12-07T01:36:02;14.45;;;12.10;;
5977;SDS011;3015;51.390;12.256;2022-12-07T01:38:32;16.42;;;12.45;;
5977;SDS011;3015;51.390;12.256;2022-12-07T01:40:59;16.95;;;12.73;;
5977;SDS011;3015;51.390;12.256;2022-12-07T01:43:26;22.08;;;14.73;;
5977;SDS011;3015;51.390;12.256;2022-12-07T01:45:54;18.45;;;12.75;;
5977;SDS011;3015;51.390;12.256;2022-12-07T01:48:27;15.98;;;12.63;;
5977;SDS011;3015;51.390;12.256;2022-12-07T01:50:57;18.45;;;13.15;;
5977;SDS011;3015;51.390;12.256;2022-12-07T01:53:29;17.42;;;11.85;;
5977;SDS011;3015;51.390;12.256;2022-12-07T01:55:57;16.85;;;11.98;;
5977;SDS011;3015;51.390;12.256;2022-12-07T01:58:24;17.33;;;12.80;;
5977;SDS011;3015;51.390;12.256;2022-12-07T02:00:50;21.50;;;11.98;;
5977;SDS011;3015;51.390;12.256;2022-12-07T02:03:23;16.47;;;12.10;;
5977;SDS011;3015;51.390;12.256;2022-12-07T02:05:54;17.15;;;12.93;;
5977;SDS011;3015;51.390;12.256;2022-12-07T02:08:20;18.73;;;12.93;;
5977;SDS011;3015;51.390;12.256;2022-12-07T02:10:46;21.08;;;12.70;;
5977;SDS011;3015;51.390;12.256;2022-12-07T02:26:51;16.45;;;13.27;;
5977;SDS011;3015;51.390;12.256;2022-12-07T02:29:42;21.33;;;13.02;;
5977;SDS011;3015;51.390;12.256;2022-12-07T02:32:33;15.18;;;11.75;;
5977;SDS011;3015;51.390;12.256;2022-12-07T02:40:43;17.17;;;12.82;;
5977;SDS011;3015;51.390;12.256;2022-12-07T02:43:24;15.23;;;11.40;;
5977;SDS011;3015;51.390;12.256;2022-12-07T02:45:53;20.02;;;13.90;;
5977;SDS011;3015;51.390;12.256;2022-12-07T02:48:23;21.45;;;14.52;;
5977;SDS011;3015;51.390;12.256;2022-12-07T02:50:50;19.23;;;13.80;;
5977;SDS011;3015;51.390;12.256;2022-12-07T02:53:36;23.48;;;15.55;;
5977;SDS011;3015;51.390;12.256;2022-12-07T03:01:59;20.38;;;13.88;;
5977;SDS011;3015;51.390;12.256;2022-12-07T03:15:46;24.50;;;14.27;;
5977;SDS011;3015;51.390;12.256;2022-12-07T03:18:20;22.73;;;14.30;;
5977;SDS011;3015;51.390;12.256;2022-12-07T03:20:49;18.85;;;12.98;;
5977;SDS011;3015;51.390;12.256;2022-12-07T03:23:17;21.23;;;13.98;;
5977;SDS011;3015;51.390;12.256;2022-12-07T03:25:45;21.30;;;13.35;;
5977;SDS011;3015;51.390;12.256;2022-12-07T03:28:15;16.45;;;11.38;;
5977;SDS011;3015;51.390;12.256;2022-12-07T03:30:48;19.55;;;12.07;;
5977;SDS011;3015;51.390;12.256;2022-12-07T03:33:19;17.30;;;12.18;;
5977;SDS011;3015;51.390;12.256;2022-12-07T03:35:51;18.73;;;11.60;;
5977;SDS011;3015;51.390;12.256;2022-12-07T03:38:29;16.77;;;11.75;;
5977;SDS011;3015;51.390;12.256;2022-12-07T03:43:33;18.42;;;11.50;;
5977;SDS011;3015;51.390;12.256;2022-12-07T03:46:34;17.20;;;11.05;;
5977;SDS011;3015;51.390;12.256;2022-12-07T03:49:40;14.35;;;10.45;;
5977;SDS011;3015;51.390;12.256;2022-12-07T03:52:23;18.63;;;9.90;;
5977;SDS011;3015;51.390;12.256;2022-12-07T03:55:11;15.73;;;11.45;;
5977;SDS011;3015;51.390;12.256;2022-12-07T03:57:42;14.27;;;9.90;;
5977;SDS011;3015;51.390;12.256;2022-12-07T04:00:11;18.38;;;11.88;;
5977;SDS011;3015;51.390;12.256;2022-12-07T04:02:37;17.35;;;10.77;;
5977;SDS011;3015;51.390;12.256;2022-12-07T04:05:03;15.27;;;11.32;;
5977;SDS011;3015;51.390;12.256;2022-12-07T04:07:29;17.25;;;10.23;;
5977;SDS011;3015;51.390;12.256;2022-12-07T04:09:55;15.23;;;9.33;;
5977;SDS011;3015;51.390;12.256;2022-12-07T04:12:21;12.67;;;10.13;;
5977;SDS011;3015;51.390;12.256;2022-12-07T04:14:47;13.40;;;11.30;;
5977;SDS011;3015;51.390;12.256;2022-12-07T04:17:13;19.60;;;12.03;;
5977;SDS011;3015;51.390;12.256;2022-12-07T04:19:38;17.17;;;10.63;;
5977;SDS011;3015;51.390;12.256;2022-12-07T04:22:04;16.03;;;10.40;;
5977;SDS011;3015;51.390;12.256;2022-12-07T04:24:31;17.42;;;11.82;;
5977;SDS011;3015;51.390;12.256;2022-12-07T04:26:57;14.00;;;11.10;;
5977;SDS011;3015;51.390;12.256;2022-12-07T04:29:23;15.47;;;12.20;;
5977;SDS011;3015;51.390;12.256;2022-12-07T04:31:49;15.47;;;11.83;;
5977;SDS011;3015;51.390;12.256;2022-12-07T04:34:15;17.67;;;10.03;;
5977;SDS011;3015;51.390;12.256;2022-12-07T04:36:42;15.30;;;10.98;;
5977;SDS011;3015;51.390;12.256;2022-12-07T04:39:13;16.45;;;11.63;;
5977;SDS011;3015;51.390;12.256;2022-12-07T04:41:51;18.13;;;11.43;;
5977;SDS011;3015;51.390;12.256;2022-12-07T04:44:18;15.40;;;10.80;;
5977;SDS011;3015;51.390;12.256;2022-12-07T04:46:44;16.73;;;11.57;;
5977;SDS011;3015;51.390;12.256;2022-12-07T04:49:11;15.65;;;10.43;;
5977;SDS011;3015;51.390;12.256;2022-12-07T04:51:38;15.77;;;11.88;;
5977;SDS011;3015;51.390;12.256;2022-12-07T04:54:04;16.67;;;11.65;;
5977;SDS011;3015;51.390;12.256;2022-12-07T04:56:30;20.87;;;13.80;;
5977;SDS011;3015;51.390;12.256;2022-12-07T04:58:56;17.70;;;11.95;;
5977;SDS011;3015;51.390;12.256;2022-12-07T05:01:22;19.80;;;13.70;;
5977;SDS011;3015;51.390;12.256;2022-12-07T05:03:48;19.67;;;12.57;;
5977;SDS011;3015;51.390;12.256;2022-12-07T05:06:14;20.23;;;13.25;;
5977;SDS011;3015;51.390;12.256;2022-12-07T05:08:40;18.33;;;12.87;;
5977;SDS011;3015;51.390;12.256;2022-12-07T05:11:07;19.23;;;13.30;;
5977;SDS011;3015;51.390;12.256;2022-12-07T05:13:33;17.02;;;13.02;;
5977;SDS011;3015;51.390;12.256;2022-12-07T05:15:59;21.10;;;12.50;;
5977;SDS011;3015;51.390;12.256;2022-12-07T05:18:25;21.07;;;13.97;;
5977;SDS011;3015;51.390;12.256;2022-12-07T05:20:51;16.27;;;11.90;;
5977;SDS011;3015;51.390;12.256;2022-12-07T05:23:17;16.57;;;13.33;;
5977;SDS011;3015;51.390;12.256;2022-12-07T05:25:43;19.15;;;12.38;;
5977;SDS011;3015;51.390;12.256;2022-12-07T05:28:09;19.80;;;12.73;;
5977;SDS011;3015;51.390;12.256;2022-12-07T05:30:34;15.67;;;12.50;;
5977;SDS011;3015;51.390;12.256;2022-12-07T05:33:00;13.80;;;10.33;;
5977;SDS011;3015;51.390;12.256;2022-12-07T05:35:26;17.97;;;11.63;;
5977;SDS011;3015;51.390;12.256;2022-12-07T05:37:51;16.20;;;11.47;;
5977;SDS011;3015;51.390;12.256;2022-12-07T05:40:17;21.00;;;13.03;;
5977;SDS011;3015;51.390;12.256;2022-12-07T05:42:44;16.58;;;12.60;;
5977;SDS011;3015;51.390;12.256;2022-12-07T05:45:10;21.23;;;13.88;;
5977;SDS011;3015;51.390;12.256;2022-12-07T05:47:36;20.23;;;14.38;;
5977;SDS011;3015;51.390;12.256;2022-12-07T05:50:02;16.70;;;13.07;;
5977;SDS011;3015;51.390;12.256;2022-12-07T05:52:29;17.02;;;11.70;;
5977;SDS011;3015;51.390;12.256;2022-12-07T05:54:55;17.27;;;11.23;;
5977;SDS011;3015;51.390;12.256;2022-12-07T05:57:21;15.43;;;11.50;;
5977;SDS011;3015;51.390;12.256;2022-12-07T05:59:46;17.97;;;12.17;;
5977;SDS011;3015;51.390;12.256;2022-12-07T06:02:13;19.83;;;13.90;;
5977;SDS011;3015;51.390;12.256;2022-12-07T06:04:40;20.38;;;13.38;;
5977;SDS011;3015;51.390;12.256;2022-12-07T06:07:09;16.25;;;11.85;;
5977;SDS011;3015;51.390;12.256;2022-12-07T06:09:36;16.05;;;12.45;;
5977;SDS011;3015;51.390;12.256;2022-12-07T06:12:02;17.77;;;11.83;;
5977;SDS011;3015;51.390;12.256;2022-12-07T06:14:47;16.42;;;11.70;;
5977;SDS011;3015;51.390;12.256;2022-12-07T06:17:13;13.63;;;11.17;;
5977;SDS011;3015;51.390;12.256;2022-12-07T06:19:39;17.60;;;13.98;;
5977;SDS011;3015;51.390;12.256;2022-12-07T06:22:05;18.95;;;12.10;;
5977;SDS011;3015;51.390;12.256;2022-12-07T06:24:31;13.77;;;10.30;;
5977;SDS011;3015;51.390;12.256;2022-12-07T06:26:58;9.23;;;8.05;;
5977;SDS011;3015;51.390;12.256;2022-12-07T06:29:23;17.23;;;12.23;;
5977;SDS011;3015;51.390;12.256;2022-12-07T06:31:50;15.47;;;11.60;;
5977;SDS011;3015;51.390;12.256;2022-12-07T06:34:17;15.93;;;11.05;;
5977;SDS011;3015;51.390;12.256;2022-12-07T06:36:44;16.98;;;12.35;;
5977;SDS011;3015;51.390;12.256;2022-12-07T06:39:12;16.02;;;12.02;;
5977;SDS011;3015;51.390;12.256;2022-12-07T06:41:38;17.60;;;13.33;;
5977;SDS011;3015;51.390;12.256;2022-12-07T06:44:04;16.85;;;11.95;;
5977;SDS011;3015;51.390;12.256;2022-12-07T06:46:30;19.45;;;12.18;;
5977;SDS011;3015;51.390;12.256;2022-12-07T06:48:56;19.90;;;13.33;;
5977;SDS011;3015;51.390;12.256;2022-12-07T06:51:22;17.83;;;12.20;;
5977;SDS011;3015;51.390;12.256;2022-12-07T06:53:48;16.57;;;12.30;;
5977;SDS011;3015;51.390;12.256;2022-12-07T06:56:13;17.13;;;12.17;;
5977;SDS011;3015;51.390;12.256;2022-12-07T06:58:39;14.00;;;11.23;;
5977;SDS011;3015;51.390;12.256;2022-12-07T07:01:09;17.03;;;12.00;;
5977;SDS011;3015;51.390;12.256;2022-12-07T07:03:35;13.35;;;11.70;;
5977;SDS011;3015;51.390;12.256;2022-12-07T07:06:01;19.27;;;11.10;;
5977;SDS011;3015;51.390;12.256;2022-12-07T07:08:26;14.83;;;10.53;;
5977;SDS011;3015;51.390;12.256;2022-12-07T07:10:52;18.70;;;12.60;;
5977;SDS011;3015;51.390;12.256;2022-12-07T07:13:18;16.00;;;12.93;;
5977;SDS011;3015;51.390;12.256;2022-12-07T07:15:43;18.70;;;13.00;;
5977;SDS011;3015;51.390;12.256;2022-12-07T07:18:09;19.07;;;12.00;;
5977;SDS011;3015;51.390;12.256;2022-12-07T07:20:34;19.40;;;13.23;;
5977;SDS011;3015;51.390;12.256;2022-12-07T07:23:00;17.27;;;13.20;;
5977;SDS011;3015;51.390;12.256;2022-12-07T07:25:26;18.37;;;12.63;;
5977;SDS011;3015;51.390;12.256;2022-12-07T07:27:51;16.97;;;11.60;;
5977;SDS011;3015;51.390;12.256;2022-12-07T07:30:17;19.20;;;13.70;;
5977;SDS011;3015;51.390;12.256;2022-12-07T07:32:42;14.23;;;11.33;;
5977;SDS011;3015;51.390;12.256;2022-12-07T07:35:08;16.50;;;12.80;;
5977;SDS011;3015;51.390;12.256;2022-12-07T07:37:34;16.87;;;12.07;;
5977;SDS011;3015;51.390;12.256;2022-12-07T07:39:59;18.20;;;12.57;;
5977;SDS011;3015;51.390;12.256;2022-12-07T07:42:25;15.60;;;11.63;;
5977;SDS011;3015;51.390;12.256;2022-12-07T07:44:50;18.87;;;13.47;;
5977;SDS011;3015;51.390;12.256;2022-12-07T07:47:16;15.03;;;11.07;;
5977;SDS011;3015;51.390;12.256;2022-12-07T07:49:42;15.27;;;11.90;;
5977;SDS011;3015;51.390;12.256;2022-12-07T07:52:07;17.33;;;12.50;;
5977;SDS011;3015;51.390;12.256;2022-12-07T07:54:33;15.97;;;12.43;;
5977;SDS011;3015;51.390;12.256;2022-12-07T07:56:58;13.67;;;12.03;;
5977;SDS011;3015;51.390;12.256;2022-12-07T07:59:24;18.00;;;12.93;;
5977;SDS011;3015;51.390;12.256;2022-12-07T08:01:50;15.67;;;11.90;;
5977;SDS011;3015;51.390;12.256;2022-12-07T08:04:15;14.73;;;12.30;;
5977;SDS011;3015;51.390;12.256;2022-12-07T08:06:41;16.93;;;12.03;;
5977;SDS011;3015;51.390;12.256;2022-12-07T08:09:07;16.70;;;11.90;;
5977;SDS011;3015;51.390;12.256;2022-12-07T08:11:33;14.73;;;10.30;;
5977;SDS011;3015;51.390;12.256;2022-12-07T08:13:59;17.13;;;12.50;;
5977;SDS011;3015;51.390;12.256;2022-12-07T08:16:25;15.47;;;11.33;;
5977;SDS011;3015;51.390;12.256;2022-12-07T08:18:51;18.23;;;12.13;;
5977;SDS011;3015;51.390;12.256;2022-12-07T08:21:17;16.00;;;11.37;;
5977;SDS011;3015;51.390;12.256;2022-12-07T08:23:42;16.00;;;12.60;;
5977;SDS011;3015;51.390;12.256;2022-12-07T08:26:17;13.70;;;10.90;;
5977;SDS011;3015;51.390;12.256;2022-12-07T08:28:43;16.45;;;11.65;;
5977;SDS011;3015;51.390;12.256;2022-12-07T08:31:10;19.35;;;13.95;;
5977;SDS011;3015;51.390;12.256;2022-12-07T08:33:38;16.27;;;11.27;;
5977;SDS011;3015;51.390;12.256;2022-12-07T08:36:05;18.33;;;13.43;;
5977;SDS011;3015;51.390;12.256;2022-12-07T08:38:34;18.40;;;12.82;;
5977;SDS011;3015;51.390;12.256;2022-12-07T08:41:00;16.67;;;11.57;;
5977;SDS011;3015;51.390;12.256;2022-12-07T08:43:26;14.13;;;10.93;;
5977;SDS011;3015;51.390;12.256;2022-12-07T08:46:13;11.27;;;9.60;;
5977;SDS011;3015;51.390;12.256;2022-12-07T08:48:52;11.95;;;9.93;;
5977;SDS011;3015;51.390;12.256;2022-12-07T08:51:19;14.13;;;9.73;;
5977;SDS011;3015;51.390;12.256;2022-12-07T08:53:46;10.68;;;7.72;;
5977;SDS011;3015;51.390;12.256;2022-12-07T08:56:12;12.80;;;9.02;;
5977;SDS011;3015;51.390;12.256;2022-12-07T08:58:39;12.90;;;9.05;;
5977;SDS011;3015;51.390;12.256;2022-12-07T09:01:05;14.68;;;8.63;;
5977;SDS011;3015;51.390;12.256;2022-12-07T09:03:31;13.00;;;9.02;;
5977;SDS011;3015;51.390;12.256;2022-12-07T09:05:57;8.82;;;7.75;;
5977;SDS011;3015;51.390;12.256;2022-12-07T09:08:26;10.82;;;8.25;;
5977;SDS011;3015;51.390;12.256;2022-12-07T09:10:52;12.98;;;9.80;;
5977;SDS011;3015;51.390;12.256;2022-12-07T09:13:18;12.70;;;8.30;;
5977;SDS011;3015;51.390;12.256;2022-12-07T09:15:44;11.98;;;9.68;;
5977;SDS011;3015;51.390;12.256;2022-12-07T09:18:10;12.20;;;9.53;;
5977;SDS011;3015;51.390;12.256;2022-12-07T09:20:36;10.73;;;7.20;;
5977;SDS011;3015;51.390;12.256;2022-12-07T09:23:04;11.10;;;8.30;;
5977;SDS011;3015;51.390;12.256;2022-12-07T09:25:31;10.15;;;8.63;;
5977;SDS011;3015;51.390;12.256;2022-12-07T09:27:57;11.47;;;8.83;;
5977;SDS011;3015;51.390;12.256;2022-12-07T09:30:24;9.38;;;8.30;;
5977;SDS011;3015;51.390;12.256;2022-12-07T09:32:50;12.10;;;9.05;;
5977;SDS011;3015;51.390;12.256;2022-12-07T09:35:16;13.87;;;10.13;;
5977;SDS011;3015;51.390;12.256;2022-12-07T09:37:42;13.60;;;8.25;;
5977;SDS011;3015;51.390;12.256;2022-12-07T09:40:08;12.13;;;8.27;;
5977;SDS011;3015;51.390;12.256;2022-12-07T09:42:35;11.85;;;8.27;;
5977;SDS011;3015;51.390;12.256;2022-12-07T09:45:04;10.65;;;8.93;;
5977;SDS011;3015;51.390;12.256;2022-12-07T09:47:30;9.40;;;8.23;;
5977;SDS011;3015;51.390;12.256;2022-12-07T09:50:06;11.27;;;8.27;;
5977;SDS011;3015;51.390;12.256;2022-12-07T09:52:33;12.27;;;9.70;;
5977;SDS011;3015;51.390;12.256;2022-12-07T09:54:59;12.82;;;9.55;;
5977;SDS011;3015;51.390;12.256;2022-12-07T09:57:29;12.80;;;9.10;;
5977;SDS011;3015;51.390;12.256;2022-12-07T09:59:56;12.10;;;8.20;;
5977;SDS011;3015;51.390;12.256;2022-12-07T10:02:28;10.48;;;8.43;;
5977;SDS011;3015;51.390;12.256;2022-12-07T10:04:59;12.10;;;10.45;;
5977;SDS011;3015;51.390;12.256;2022-12-07T10:07:25;13.83;;;10.53;;
5977;SDS011;3015;51.390;12.256;2022-12-07T10:09:51;11.43;;;8.85;;
5977;SDS011;3015;51.390;12.256;2022-12-07T10:12:17;13.37;;;8.67;;
5977;SDS011;3015;51.390;12.256;2022-12-07T10:14:54;10.50;;;6.95;;
5977;SDS011;3015;51.390;12.256;2022-12-07T10:17:36;11.35;;;8.40;;
5977;SDS011;3015;51.390;12.256;2022-12-07T10:22:37;11.07;;;9.75;;
5977;SDS011;3015;51.390;12.256;2022-12-07T10:25:19;12.65;;;8.70;;
5977;SDS011;3015;51.390;12.256;2022-12-07T10:27:57;8.65;;;7.78;;
5977;SDS011;3015;51.390;12.256;2022-12-07T10:30:31;10.60;;;7.63;;
5977;SDS011;3015;51.390;12.256;2022-12-07T10:32:58;9.30;;;7.75;;
5977;SDS011;3015;51.390;12.256;2022-12-07T10:35:25;10.60;;;8.13;;
5977;SDS011;3015;51.390;12.256;2022-12-07T10:37:55;7.38;;;6.68;;
5977;SDS011;3015;51.390;12.256;2022-12-07T10:46:05;12.15;;;7.50;;
5977;SDS011;3015;51.390;12.256;2022-12-07T10:48:40;9.10;;;7.45;;
5977;SDS011;3015;51.390;12.256;2022-12-07T11:01:47;6.95;;;6.15;;
5977;SDS011;3015;51.390;12.256;2022-12-07T11:07:20;8.10;;;5.50;;
5977;SDS011;3015;51.390;12.256;2022-12-07T11:10:02;8.13;;;5.75;;
5977;SDS011;3015;51.390;12.256;2022-12-07T11:17:59;6.80;;;6.07;;
5977;SDS011;3015;51.390;12.256;2022-12-07T11:23:18;6.50;;;4.78;;
5977;SDS011;3015;51.390;12.256;2022-12-07T11:25:50;10.18;;;7.53;;
5977;SDS011;3015;51.390;12.256;2022-12-07T11:31:18;8.68;;;7.28;;
5977;SDS011;3015;51.390;12.256;2022-12-07T11:33:49;10.73;;;7.82;;
5977;SDS011;3015;51.390;12.256;2022-12-07T11:38:59;10.38;;;8.55;;
5977;SDS011;3015;51.390;12.256;2022-12-07T11:41:27;10.93;;;9.13;;
5977;SDS011;3015;51.390;12.256;2022-12-07T11:43:56;11.88;;;9.85;;
5977;SDS011;3015;51.390;12.256;2022-12-07T11:46:36;11.02;;;9.93;;
5977;SDS011;3015;51.390;12.256;2022-12-07T11:51:51;10.35;;;7.80;;
5977;SDS011;3015;51.390;12.256;2022-12-07T11:54:22;14.50;;;8.50;;
5977;SDS011;3015;51.390;12.256;2022-12-07T11:56:50;7.90;;;6.32;;
5977;SDS011;3015;51.390;12.256;2022-12-07T11:59:18;11.52;;;6.55;;
5977;SDS011;3015;51.390;12.256;2022-12-07T12:01:56;18.35;;;9.18;;
5977;SDS011;3015;51.390;12.256;2022-12-07T12:06:53;6.88;;;5.85;;
5977;SDS011;3015;51.390;12.256;2022-12-07T12:09:42;5.97;;;5.47;;
5977;SDS011;3015;51.390;12.256;2022-12-07T12:14:43;7.45;;;6.60;;
5977;SDS011;3015;51.390;12.256;2022-12-07T12:23:23;5.70;;;5.20;;
5977;SDS011;3015;51.390;12.256;2022-12-07T12:25:31;6.97;;;5.22;;
5977;SDS011;3015;51.390;12.256;2022-12-07T12:28:01;6.18;;;4.95;;
5977;SDS011;3015;51.390;12.256;2022-12-07T12:30:31;5.18;;;4.72;;
5977;SDS011;3015;51.390;12.256;2022-12-07T12:33:19;4.80;;;4.35;;
5977;SDS011;3015;51.390;12.256;2022-12-07T12:46:57;4.32;;;3.92;;
5977;SDS011;3015;51.390;12.256;2022-12-07T12:51:56;3.60;;;3.30;;
5977;SDS011;3015;51.390;12.256;2022-12-07T12:54:28;9.88;;;3.95;;
5977;SDS011;3015;51.390;12.256;2022-12-07T12:57:08;7.10;;;6.40;;
5977;SDS011;3015;51.390;12.256;2022-12-07T13:02:21;3.92;;;3.63;;
5977;SDS011;3015;51.390;12.256;2022-12-07T13:04:52;7.35;;;6.13;;
5977;SDS011;3015;51.390;12.256;2022-12-07T13:13:01;4.63;;;3.95;;
5977;SDS011;3015;51.390;12.256;2022-12-07T13:18:03;4.30;;;3.30;;
5977;SDS011;3015;51.390;12.256;2022-12-07T13:20:49;6.32;;;3.03;;
5977;SDS011;3015;51.390;12.256;2022-12-07T13:23:16;2.90;;;2.70;;
5977;SDS011;3015;51.390;12.256;2022-12-07T13:25:46;4.18;;;3.40;;
5977;SDS011;3015;51.390;12.256;2022-12-07T13:28:20;4.40;;;2.33;;
5977;SDS011;3015;51.390;12.256;2022-12-07T13:33:35;3.15;;;2.78;;
5977;SDS011;3015;51.390;12.256;2022-12-07T13:36:01;2.85;;;2.60;;
5977;SDS011;3015;51.390;12.256;2022-12-07T13:38:34;2.50;;;2.30;;
5977;SDS011;3015;51.390;12.256;2022-12-07T13:41:11;4.00;;;3.70;;
5977;SDS011;3015;51.390;12.256;2022-12-07T13:43:49;2.65;;;2.45;;
5977;SDS011;3015;51.390;12.256;2022-12-07T13:46:17;2.78;;;2.53;;
5977;SDS011;3015;51.390;12.256;2022-12-07T13:48:47;3.15;;;2.65;;
5977;SDS011;3015;51.390;12.256;2022-12-07T13:51:22;2.60;;;2.40;;
5977;SDS011;3015;51.390;12.256;2022-12-07T13:53:54;1.98;;;1.88;;
5977;SDS011;3015;51.390;12.256;2022-12-07T13:56:26;2.85;;;2.65;;
5977;SDS011;3015;51.390;12.256;2022-12-07T13:58:57;2.17;;;2.08;;
5977;SDS011;3015;51.390;12.256;2022-12-07T14:01:23;2.63;;;2.43;;
5977;SDS011;3015;51.390;12.256;2022-12-07T14:03:49;3.05;;;2.22;;
5977;SDS011;3015;51.390;12.256;2022-12-07T14:09:14;2.60;;;2.40;;
5977;SDS011;3015;51.390;12.256;2022-12-07T14:11:47;3.50;;;3.20;;
5977;SDS011;3015;51.390;12.256;2022-12-07T14:14:18;4.50;;;3.15;;
5977;SDS011;3015;51.390;12.256;2022-12-07T14:19:40;7.97;;;2.92;;
5977;SDS011;3015;51.390;12.256;2022-12-07T14:22:27;4.53;;;2.95;;
5977;SDS011;3015;51.390;12.256;2022-12-07T14:28:24;4.30;;;3.45;;
5977;SDS011;3015;51.390;12.256;2022-12-07T14:30:36;3.28;;;2.97;;
5977;SDS011;3015;51.390;12.256;2022-12-07T14:33:03;6.20;;;3.50;;
5977;SDS011;3015;51.390;12.256;2022-12-07T14:35:30;3.15;;;2.95;;
5977;SDS011;3015;51.390;12.256;2022-12-07T14:37:56;4.07;;;2.67;;
5977;SDS011;3015;51.390;12.256;2022-12-07T14:40:23;3.67;;;3.38;;
5977;SDS011;3015;51.390;12.256;2022-12-07T14:42:51;6.40;;;3.35;;
5977;SDS011;3015;51.390;12.256;2022-12-07T14:45:19;3.78;;;3.47;;
5977;SDS011;3015;51.390;12.256;2022-12-07T14:47:46;3.55;;;3.25;;
5977;SDS011;3015;51.390;12.256;2022-12-07T14:50:13;3.13;;;2.83;;
5977;SDS011;3015;51.390;12.256;2022-12-07T14:52:40;3.47;;;3.10;;
5977;SDS011;3015;51.390;12.256;2022-12-07T14:55:25;3.65;;;3.33;;
5977;SDS011;3015;51.390;12.256;2022-12-07T14:57:52;3.83;;;3.08;;
5977;SDS011;3015;51.390;12.256;2022-12-07T15:00:18;3.58;;;3.33;;
5977;SDS011;3015;51.390;12.256;2022-12-07T15:02:45;3.35;;;3.00;;
5977;SDS011;3015;51.390;12.256;2022-12-07T15:05:12;3.97;;;3.17;;
5977;SDS011;3015;51.390;12.256;2022-12-07T15:07:38;3.60;;;3.30;;
5977;SDS011;3015;51.390;12.256;2022-12-07T15:10:05;4.05;;;3.75;;
5977;SDS011;3015;51.390;12.256;2022-12-07T15:12:31;3.05;;;2.85;;
5977;SDS011;3015;51.390;12.256;2022-12-07T15:14:57;2.63;;;2.43;;
5977;SDS011;3015;51.390;12.256;2022-12-07T15:17:23;3.13;;;2.50;;
5977;SDS011;3015;51.390;12.256;2022-12-07T15:19:49;3.40;;;3.10;;
5977;SDS011;3015;51.390;12.256;2022-12-07T15:22:15;4.50;;;3.13;;
5977;SDS011;3015;51.390;12.256;2022-12-07T15:24:41;3.13;;;2.83;;
5977;SDS011;3015;51.390;12.256;2022-12-07T15:27:07;6.93;;;4.43;;
5977;SDS011;3015;51.390;12.256;2022-12-07T15:29:33;6.10;;;3.77;;
5977;SDS011;3015;51.390;12.256;2022-12-07T15:31:59;5.17;;;3.57;;
5977;SDS011;3015;51.390;12.256;2022-12-07T15:34:25;3.85;;;3.25;;
5977;SDS011;3015;51.390;12.256;2022-12-07T15:36:53;6.20;;;3.33;;
5977;SDS011;3015;51.390;12.256;2022-12-07T15:39:19;4.65;;;2.67;;
5977;SDS011;3015;51.390;12.256;2022-12-07T15:41:46;3.65;;;3.33;;
5977;SDS011;3015;51.390;12.256;2022-12-07T15:44:12;3.90;;;3.10;;
5977;SDS011;3015;51.390;12.256;2022-12-07T15:46:57;7.78;;;3.75;;
5977;SDS011;3015;51.390;12.256;2022-12-07T15:49:23;5.05;;;3.30;;
5977;SDS011;3015;51.390;12.256;2022-12-07T15:51:49;3.17;;;2.97;;
5977;SDS011;3015;51.390;12.256;2022-12-07T15:54:25;4.03;;;3.47;;
5977;SDS011;3015;51.390;12.256;2022-12-07T15:56:51;3.47;;;3.20;;
5977;SDS011;3015;51.390;12.256;2022-12-07T15:59:18;5.10;;;3.00;;
5977;SDS011;3015;51.390;12.256;2022-12-07T16:01:44;3.70;;;3.40;;
5977;SDS011;3015;51.390;12.256;2022-12-07T16:04:10;7.80;;;3.73;;
5977;SDS011;3015;51.390;12.256;2022-12-07T16:06:36;4.05;;;3.72;;
5977;SDS011;3015;51.390;12.256;2022-12-07T16:09:02;4.80;;;3.63;;
5977;SDS011;3015;51.390;12.256;2022-12-07T16:11:29;4.43;;;3.88;;
5977;SDS011;3015;51.390;12.256;2022-12-07T16:13:55;4.55;;;4.20;;
5977;SDS011;3015;51.390;12.256;2022-12-07T16:16:21;5.40;;;4.10;;
5977;SDS011;3015;51.390;12.256;2022-12-07T16:18:47;9.00;;;4.90;;
5977;SDS011;3015;51.390;12.256;2022-12-07T16:21:14;5.00;;;4.28;;
5977;SDS011;3015;51.390;12.256;2022-12-07T16:23:40;5.20;;;4.78;;
5977;SDS011;3015;51.390;12.256;2022-12-07T16:26:16;9.68;;;7.10;;
5977;SDS011;3015;51.390;12.256;2022-12-07T16:28:43;11.45;;;8.57;;
5977;SDS011;3015;51.390;12.256;2022-12-07T16:31:11;14.82;;;9.30;;
5977;SDS011;3015;51.390;12.256;2022-12-07T16:33:38;9.27;;;7.07;;
5977;SDS011;3015;51.390;12.256;2022-12-07T16:36:05;7.18;;;6.05;;
5977;SDS011;3015;51.390;12.256;2022-12-07T16:38:32;5.70;;;5.00;;
5977;SDS011;3015;51.390;12.256;2022-12-07T16:40:58;6.07;;;5.55;;
5977;SDS011;3015;51.390;12.256;2022-12-07T16:43:24;5.60;;;4.70;;
5977;SDS011;3015;51.390;12.256;2022-12-07T16:45:50;4.95;;;4.45;;
5977;SDS011;3015;51.390;12.256;2022-12-07T16:48:16;7.22;;;5.47;;
5977;SDS011;3015;51.390;12.256;2022-12-07T16:50:43;5.40;;;4.28;;
5977;SDS011;3015;51.390;12.256;2022-12-07T16:53:10;4.55;;;4.25;;
5977;SDS011;3015;51.390;12.256;2022-12-07T16:55:37;7.00;;;4.10;;
5977;SDS011;3015;51.390;12.256;2022-12-07T16:58:03;5.20;;;4.50;;
5977;SDS011;3015;51.390;12.256;2022-12-07T17:00:29;4.90;;;4.50;;